Rechercher aéroport 
image banner adimage banner ad
image banner ad

SVKU - Planta De Vapor Hh - 8

Situé à Lagunillas, Venezuela

ICAO - , IATA -

Données fournies par Airmate  

Information générale

Coordonnées: N10°7'0" W71°13'20"
Élévation : feet MSL.
 
Voir autres Aéroports à Zulia

Données opérationnelles

Accessible au public
Heure actuelle UTC:
Heure actuelle locale:
Météo à : SVMC - Maracaibo / La Chinita Intl ( 74 km )
METAR: SVMC 230602Z AUTO 30003KT NCD 27/23 Q1010
TAF: TAF SVMC 230400Z 2306/2406 00000KT 9999 BKN013 TX35/2319Z TN24/1908Z TEMPO 2306/2310 05005KT 9000 DZ BKN013
Voir NOTAMs / SUP AIP / TFR affectant cet aéroport [VIEW]
Fréquences de communication: [VIEW]

Pistes:

Coordonnées de l'aéroport

Adresse: Lagunillas Venezuela

Vue satellite de SVKU